Time;durP1;ratioP1;P1;durP2;ratioP2;P2;SDS_P1;SDS_P2;PMS_P1;PMS_P2;Temp;Humidity;BMP_temperature;BMP_pressure;BME280_temperature;BME280_humidity;BME280_pressure;Samples;Min_cycle;Max_cycle;Signal;HPM_P1;HPM_P2
2021/01/26 00:02:24;;;;;;;16.77;13.53;;;3.50;99.90;;;;;;5071199;28;20212;-58
2021/01/26 00:04:50;;;;;;;16.63;13.00;;;3.60;99.90;;;;;;5071117;28;20205;-58
2021/01/26 00:07:17;;;;;;;15.57;12.30;;;3.70;99.90;;;;;;5071000;28;20201;-57
2021/01/26 00:09:45;;;;;;;15.87;12.40;;;3.80;99.90;;;;;;5070651;28;20228;-57
2021/01/26 00:12:12;;;;;;;14.13;11.83;;;3.80;99.90;;;;;;5071062;28;20205;-57
2021/01/26 00:14:38;;;;;;;15.80;12.90;;;3.90;99.90;;;;;;5070934;28;20230;-58
2021/01/26 00:17:04;;;;;;;16.43;12.47;;;3.90;99.90;;;;;;5070410;28;20201;-58
2021/01/26 00:19:30;;;;;;;14.53;11.60;;;3.90;99.90;;;;;;5070790;28;20221;-58
2021/01/26 00:21:56;;;;;;;14.57;12.50;;;3.90;99.90;;;;;;5070829;28;20205;-59
2021/01/26 00:24:23;;;;;;;13.90;11.53;;;3.90;99.90;;;;;;5070530;28;20208;-58
2021/01/26 00:26:49;;;;;;;14.73;11.90;;;3.80;99.90;;;;;;5070997;28;20200;-58
2021/01/26 00:29:16;;;;;;;15.20;11.77;;;3.70;99.90;;;;;;5070376;28;20229;-58
2021/01/26 00:31:42;;;;;;;12.77;10.37;;;3.60;99.90;;;;;;5070754;28;20208;-57
2021/01/26 00:34:08;;;;;;;12.73;11.03;;;3.50;99.90;;;;;;5070643;28;20282;-58
2021/01/26 00:36:34;;;;;;;12.87;10.97;;;3.40;99.90;;;;;;5070597;28;20209;-58
2021/01/26 00:39:00;;;;;;;13.53;11.03;;;3.40;99.90;;;;;;5070522;28;20225;-58
2021/01/26 00:41:27;;;;;;;14.50;12.10;;;3.40;99.90;;;;;;5070973;28;20578;-58
2021/01/26 00:43:54;;;;;;;13.57;11.43;;;3.50;99.90;;;;;;5070724;28;20266;-59
2021/01/26 00:46:20;;;;;;;15.80;12.33;;;3.50;99.90;;;;;;5071001;28;20201;-59
2021/01/26 00:48:46;;;;;;;13.77;11.77;;;3.60;99.90;;;;;;5070755;28;20225;-58
2021/01/26 00:51:12;;;;;;;15.67;11.17;;;3.70;99.90;;;;;;5071095;28;20653;-58
2021/01/26 00:53:39;;;;;;;16.87;11.87;;;3.70;99.90;;;;;;5070452;28;20212;-58
2021/01/26 00:56:05;;;;;;;16.23;11.80;;;3.80;99.90;;;;;;5070786;28;20208;-58
2021/01/26 00:58:32;;;;;;;12.93;11.03;;;3.80;99.90;;;;;;5070444;28;20225;-60
2021/01/26 01:00:58;;;;;;;14.83;11.43;;;3.80;99.90;;;;;;5070625;28;20235;-58
2021/01/26 01:03:25;;;;;;;15.67;11.03;;;3.80;99.90;;;;;;5070458;28;20205;-58
2021/01/26 01:05:51;;;;;;;13.53;11.53;;;3.80;99.90;;;;;;5070219;28;20208;-58
2021/01/26 01:08:18;;;;;;;15.83;12.00;;;3.70;99.90;;;;;;5070427;28;20233;-58
2021/01/26 01:10:44;;;;;;;16.07;11.90;;;3.60;99.90;;;;;;5070570;28;20201;-59
2021/01/26 01:13:11;;;;;;;14.13;12.00;;;3.50;99.90;;;;;;5070562;28;20201;-59
2021/01/26 01:15:39;;;;;;;15.20;11.70;;;3.40;99.90;;;;;;5070799;28;20220;-57
2021/01/26 01:18:06;;;;;;;15.23;11.73;;;3.40;99.90;;;;;;5070646;28;20232;-59
2021/01/26 01:20:32;;;;;;;12.67;11.17;;;3.30;99.90;;;;;;5070665;28;20205;-59
2021/01/26 01:22:59;;;;;;;14.30;11.53;;;3.20;99.90;;;;;;5070696;28;20668;-57
2021/01/26 01:25:25;;;;;;;14.07;11.77;;;3.20;99.90;;;;;;5070883;28;20205;-58
2021/01/26 01:27:51;;;;;;;13.67;10.70;;;3.20;99.90;;;;;;5071815;28;20232;-58
2021/01/26 01:30:20;;;;;;;13.87;11.03;;;3.30;99.90;;;;;;5074100;28;20208;-56
2021/01/26 01:32:47;;;;;;;12.60;10.87;;;3.40;99.90;;;;;;5073850;28;20205;-56
2021/01/26 01:35:15;;;;;;;14.00;11.00;;;3.50;99.90;;;;;;5073567;28;20573;-56
2021/01/26 01:37:41;;;;;;;11.57;10.10;;;3.60;99.90;;;;;;5073980;28;20232;-56
2021/01/26 01:40:11;;;;;;;12.17;9.80;;;3.70;99.90;;;;;;5073840;28;20672;-56
2021/01/26 01:42:37;;;;;;;12.30;9.50;;;3.70;99.90;;;;;;5073875;28;20576;-56
2021/01/26 01:45:05;;;;;;;13.10;9.80;;;3.70;99.90;;;;;;5073852;28;20212;-56
2021/01/26 01:47:38;;;;;;;11.67;9.03;;;3.70;99.90;;;;;;5073716;28;20205;-56
2021/01/26 01:50:10;;;;;;;11.70;9.30;;;3.80;99.90;;;;;;5073950;28;20201;-56
2021/01/26 01:52:37;;;;;;;11.13;9.37;;;3.80;99.90;;;;;;5073903;28;20651;-56
2021/01/26 01:55:08;;;;;;;12.67;9.90;;;3.80;99.90;;;;;;5073659;28;20212;-56
2021/01/26 01:57:37;;;;;;;14.47;10.00;;;3.90;99.90;;;;;;5073417;28;20724;-56
2021/01/26 02:00:07;;;;;;;13.10;9.30;;;3.80;99.90;;;;;;5073240;28;20201;-59
2021/01/26 02:02:34;;;;;;;11.50;9.27;;;3.80;99.90;;;;;;5073566;28;20262;-58
2021/01/26 02:05:03;;;;;;;12.03;9.73;;;3.80;99.90;;;;;;5073368;28;20629;-57
2021/01/26 02:07:33;;;;;;;11.60;9.93;;;3.90;99.90;;;;;;5073386;28;20640;-58
2021/01/26 02:09:59;;;;;;;9.77;8.53;;;3.90;99.90;;;;;;5073117;28;20232;-58
2021/01/26 02:12:25;;;;;;;10.73;8.90;;;3.80;99.90;;;;;;5073251;28;20258;-57
2021/01/26 02:14:54;;;;;;;10.50;8.50;;;3.90;99.90;;;;;;5073284;28;20205;-59
2021/01/26 02:17:35;;;;;;;10.20;8.17;;;3.90;99.90;;;;;;5072998;28;20552;-56
2021/01/26 02:20:35;;;;;;;8.63;7.73;;;3.90;99.90;;;;;;5073129;28;20589;-58
2021/01/26 02:23:25;;;;;;;9.50;8.30;;;3.90;99.90;;;;;;5073003;28;20205;-56
2021/01/26 02:26:47;;;;;;;9.93;7.37;;;3.90;99.90;;;;;;5073204;28;20193;-57
2021/01/26 02:29:21;;;;;;;10.03;8.27;;;3.90;99.90;;;;;;5072461;28;20259;-57
2021/01/26 02:32:01;;;;;;;7.97;6.80;;;3.90;99.90;;;;;;5073044;28;20215;-58
2021/01/26 02:35:17;;;;;;;8.77;7.40;;;4.00;99.90;;;;;;5072684;28;20204;-58
2021/01/26 02:38:16;;;;;;;9.53;7.27;;;4.00;99.90;;;;;;5072495;28;20225;-59
2021/01/26 02:40:50;;;;;;;9.33;6.83;;;4.00;99.90;;;;;;5072343;28;20216;-56
2021/01/26 02:43:43;;;;;;;9.87;7.00;;;4.00;99.90;;;;;;5072535;28;20542;-56
2021/01/26 02:46:17;;;;;;;9.43;7.30;;;4.00;99.90;;;;;;5072891;28;20189;-59
2021/01/26 02:48:56;;;;;;;9.63;7.53;;;4.00;99.90;;;;;;5072529;28;20229;-60
2021/01/26 02:51:34;;;;;;;12.43;8.13;;;4.00;99.90;;;;;;5072650;28;20209;-58
2021/01/26 02:54:05;;;;;;;10.73;7.07;;;3.80;99.90;;;;;;5072408;28;20208;-56
2021/01/26 02:56:42;;;;;;;11.60;7.47;;;3.80;99.90;;;;;;5072450;28;20213;-61
2021/01/26 02:59:18;;;;;;;9.50;7.63;;;3.90;99.90;;;;;;5072442;28;20229;-58
2021/01/26 03:01:48;;;;;;;8.57;6.93;;;3.80;99.90;;;;;;5072912;28;20185;-58
2021/01/26 03:04:20;;;;;;;10.13;7.33;;;3.80;99.90;;;;;;5072313;28;20259;-57
2021/01/26 03:06:51;;;;;;;8.83;7.07;;;3.70;99.90;;;;;;5072189;28;20212;-57
2021/01/26 03:09:22;;;;;;;9.43;7.00;;;3.60;99.90;;;;;;5072356;28;20370;-56
2021/01/26 03:11:54;;;;;;;10.20;7.13;;;3.70;99.90;;;;;;5072202;28;20293;-57
2021/01/26 03:14:27;;;;;;;9.50;7.33;;;3.60;99.90;;;;;;5072257;28;20193;-57
2021/01/26 03:17:03;;;;;;;10.23;7.63;;;3.60;99.90;;;;;;5072001;28;20571;-58
2021/01/26 03:19:33;;;;;;;9.30;7.10;;;3.60;99.90;;;;;;5071954;28;20225;-57
2021/01/26 03:22:01;;;;;;;8.93;7.17;;;3.60;99.90;;;;;;5072036;28;20212;-57
2021/01/26 03:24:31;;;;;;;10.43;7.33;;;3.60;99.90;;;;;;5071766;28;20212;-57
2021/01/26 03:27:01;;;;;;;8.13;6.23;;;3.60;99.90;;;;;;5071789;28;20201;-58
2021/01/26 03:29:30;;;;;;;10.00;6.87;;;3.60;99.90;;;;;;5071911;28;20235;-59
2021/01/26 03:32:00;;;;;;;8.97;6.60;;;3.60;99.90;;;;;;5071750;28;20204;-58
2021/01/26 03:34:27;;;;;;;9.70;7.03;;;3.50;99.90;;;;;;5072101;28;20205;-59
2021/01/26 03:36:53;;;;;;;9.57;6.57;;;3.50;99.90;;;;;;5071693;28;20231;-59
2021/01/26 03:39:19;;;;;;;9.57;6.60;;;3.50;99.90;;;;;;5071420;28;20282;-59
2021/01/26 03:41:46;;;;;;;7.83;6.07;;;3.30;99.90;;;;;;5071478;28;20205;-60
2021/01/26 03:44:13;;;;;;;9.20;6.67;;;3.10;99.90;;;;;;5071249;28;20208;-60
2021/01/26 03:47:08;;;;;;;7.80;6.10;;;3.10;99.90;;;;;;5071568;28;20212;-60
2021/01/26 03:49:51;;;;;;;8.47;5.70;;;3.00;99.90;;;;;;5071144;28;20229;-60
2021/01/26 03:52:30;;;;;;;9.87;6.57;;;3.10;99.90;;;;;;5071512;28;20209;-60
2021/01/26 03:55:04;;;;;;;8.20;6.60;;;3.30;99.90;;;;;;5071678;28;20262;-60
2021/01/26 03:57:44;;;;;;;7.90;6.00;;;3.20;99.90;;;;;;5071509;28;20205;-58
2021/01/26 04:00:19;;;;;;;8.30;6.37;;;3.40;99.90;;;;;;5071167;28;20660;-60
2021/01/26 04:02:55;;;;;;;9.53;5.93;;;3.40;99.90;;;;;;5071165;28;20688;-60
2021/01/26 04:05:25;;;;;;;7.20;5.30;;;3.50;99.90;;;;;;5070996;28;20891;-60
2021/01/26 04:07:59;;;;;;;8.20;6.17;;;3.50;99.90;;;;;;5070935;28;20278;-60
2021/01/26 04:10:27;;;;;;;10.70;5.80;;;3.40;99.90;;;;;;5071236;28;20208;-60
2021/01/26 04:12:57;;;;;;;9.80;5.57;;;3.30;99.90;;;;;;5070902;28;20687;-60
2021/01/26 04:15:29;;;;;;;8.77;5.43;;;3.20;99.90;;;;;;5070982;28;20216;-60
2021/01/26 04:17:56;;;;;;;9.10;5.80;;;3.20;99.90;;;;;;5071039;28;20224;-60
2021/01/26 04:20:26;;;;;;;7.23;5.50;;;3.40;99.90;;;;;;5071099;28;20201;-60
2021/01/26 04:22:55;;;;;;;9.17;5.57;;;3.40;99.90;;;;;;5071256;28;20208;-60
2021/01/26 04:25:34;;;;;;;8.03;5.60;;;3.50;99.90;;;;;;5071056;28;20205;-61
2021/01/26 04:28:03;;;;;;;8.40;5.40;;;3.60;99.90;;;;;;5070434;28;20232;-60
2021/01/26 04:30:30;;;;;;;8.43;5.37;;;3.70;99.90;;;;;;5070983;28;20259;-60
2021/01/26 04:32:58;;;;;;;8.53;5.50;;;3.50;99.90;;;;;;5070958;28;20205;-60
2021/01/26 04:35:25;;;;;;;8.33;5.77;;;3.60;99.90;;;;;;5070723;28;20213;-60
2021/01/26 04:37:51;;;;;;;9.50;5.80;;;3.70;99.90;;;;;;5070464;28;20224;-60
2021/01/26 04:40:19;;;;;;;8.97;5.40;;;3.80;99.90;;;;;;5070570;28;20679;-60
2021/01/26 04:42:47;;;;;;;7.63;5.87;;;3.90;99.90;;;;;;5070586;28;20207;-60
2021/01/26 04:45:16;;;;;;;6.37;5.10;;;3.80;99.90;;;;;;5070528;28;20210;-60
2021/01/26 04:47:47;;;;;;;8.00;5.77;;;3.80;99.90;;;;;;5070571;28;20225;-60
2021/01/26 04:50:22;;;;;;;7.63;5.57;;;3.90;99.90;;;;;;5070855;28;20227;-60
2021/01/26 04:53:10;;;;;;;7.80;5.30;;;3.90;99.90;;;;;;5071047;28;20606;-60
2021/01/26 04:55:48;;;;;;;7.30;5.43;;;3.90;99.90;;;;;;5071060;28;20224;-60
2021/01/26 04:58:54;;;;;;;10.33;5.40;;;4.00;99.90;;;;;;5070688;28;20220;-60
2021/01/26 05:01:32;;;;;;;7.20;5.33;;;4.00;99.90;;;;;;5049649;28;20204;-60
2021/01/26 05:04:02;;;;;;;6.90;5.60;;;4.00;99.90;;;;;;5073844;28;20205;-60
2021/01/26 05:06:34;;;;;;;9.17;5.73;;;4.10;99.90;;;;;;5076641;28;20216;-60
2021/01/26 05:09:02;;;;;;;8.50;6.13;;;4.10;99.90;;;;;;5075052;28;20343;-60
2021/01/26 05:11:32;;;;;;;7.17;5.67;;;4.10;99.90;;;;;;5074446;28;20738;-60
2021/01/26 05:14:02;;;;;;;9.30;6.07;;;4.10;99.90;;;;;;5074090;28;20262;-60
2021/01/26 05:16:33;;;;;;;6.63;5.43;;;4.20;99.90;;;;;;5074269;28;20205;-60
2021/01/26 05:19:06;;;;;;;10.87;6.47;;;4.20;99.90;;;;;;5074089;28;20220;-60
2021/01/26 05:21:38;;;;;;;7.47;5.63;;;4.10;99.90;;;;;;5074566;28;20205;-60
2021/01/26 05:24:14;;;;;;;10.70;7.00;;;4.10;99.90;;;;;;5073945;28;20205;-60
2021/01/26 05:26:40;;;;;;;7.43;5.23;;;4.10;99.90;;;;;;5073978;28;20621;-60
2021/01/26 05:29:08;;;;;;;9.63;6.00;;;4.10;99.90;;;;;;5073640;28;20225;-60
2021/01/26 05:31:34;;;;;;;10.47;6.20;;;4.10;99.90;;;;;;5074036;28;20200;-60
2021/01/26 05:34:07;;;;;;;8.53;5.63;;;4.10;99.90;;;;;;5073917;28;20209;-60
2021/01/26 05:36:33;;;;;;;8.07;5.47;;;4.10;99.90;;;;;;5073795;28;20599;-59
2021/01/26 05:38:59;;;;;;;7.77;5.53;;;4.10;99.90;;;;;;5074076;28;20614;-59
2021/01/26 05:41:26;;;;;;;8.83;5.10;;;4.10;99.90;;;;;;5074264;28;20304;-59
2021/01/26 05:43:53;;;;;;;8.07;5.70;;;4.10;99.90;;;;;;5073889;28;20203;-59
2021/01/26 05:46:36;;;;;;;8.93;4.90;;;4.10;99.90;;;;;;5073812;28;20235;-59
2021/01/26 05:49:04;;;;;;;7.87;5.17;;;4.10;99.90;;;;;;5073604;28;20224;-59
2021/01/26 05:51:32;;;;;;;6.23;4.77;;;4.00;99.90;;;;;;5074092;28;20208;-59
2021/01/26 05:54:02;;;;;;;9.20;4.60;;;4.00;99.90;;;;;;5073821;28;20703;-59
2021/01/26 05:56:29;;;;;;;8.50;4.50;;;3.90;99.90;;;;;;5073961;28;20209;-59
2021/01/26 05:58:56;;;;;;;7.77;4.57;;;3.90;99.90;;;;;;5073309;28;20712;-58
2021/01/26 06:01:28;;;;;;;7.17;4.60;;;3.90;99.90;;;;;;5073392;28;20204;-59
2021/01/26 06:04:08;;;;;;;6.33;3.90;;;4.00;99.90;;;;;;5073288;28;20209;-59
2021/01/26 06:06:52;;;;;;;9.00;4.30;;;3.90;99.90;;;;;;5073692;28;20212;-58
2021/01/26 06:09:34;;;;;;;13.23;4.73;;;4.00;99.90;;;;;;5073549;28;20236;-59
2021/01/26 06:12:16;;;;;;;8.83;4.37;;;4.00;99.90;;;;;;5073194;28;20680;-59
2021/01/26 06:14:45;;;;;;;8.70;4.37;;;4.10;99.90;;;;;;5071921;28;20620;-58
2021/01/26 06:17:15;;;;;;;9.77;4.50;;;4.00;99.90;;;;;;5073522;28;20200;-59
2021/01/26 06:19:42;;;;;;;6.43;4.00;;;4.00;99.90;;;;;;5073239;28;20223;-59
2021/01/26 06:22:08;;;;;;;6.43;3.97;;;4.10;99.90;;;;;;5073648;28;20278;-59
2021/01/26 06:24:37;;;;;;;8.20;3.80;;;4.10;99.90;;;;;;5074628;28;20692;-59
2021/01/26 06:27:33;;;;;;;6.87;3.60;;;4.00;99.90;;;;;;5075370;28;20216;-59
2021/01/26 06:30:09;;;;;;;5.13;3.30;;;4.00;99.90;;;;;;5073926;28;20225;-59
2021/01/26 06:32:45;;;;;;;6.20;3.40;;;4.10;99.90;;;;;;5073173;28;20622;-59
2021/01/26 06:35:17;;;;;;;8.97;3.80;;;4.10;99.90;;;;;;5072779;28;20226;-59
2021/01/26 06:38:02;;;;;;;9.07;3.13;;;4.00;99.90;;;;;;5072954;28;20229;-59
2021/01/26 06:41:07;;;;;;;6.17;3.30;;;4.00;99.90;;;;;;5072910;28;20299;-59
2021/01/26 06:43:52;;;;;;;5.33;3.00;;;4.00;99.90;;;;;;5066477;28;20471;-59
2021/01/26 06:46:32;;;;;;;7.27;3.43;;;4.00;99.90;;;;;;5072841;28;20272;-59
2021/01/26 06:49:10;;;;;;;4.97;3.33;;;4.10;99.90;;;;;;5072681;28;20237;-59
2021/01/26 06:52:15;;;;;;;6.27;3.10;;;4.20;99.90;;;;;;5072611;28;20204;-59
2021/01/26 06:54:50;;;;;;;5.83;2.80;;;4.20;99.90;;;;;;5073314;28;20656;-59
2021/01/26 06:57:34;;;;;;;4.57;2.63;;;4.10;99.90;;;;;;5073144;28;20204;-60
2021/01/26 07:00:17;;;;;;;7.27;2.60;;;4.00;99.90;;;;;;5072660;28;20345;-60
2021/01/26 07:03:12;;;;;;;9.23;2.57;;;4.10;99.90;;;;;;5072821;28;20204;-60
2021/01/26 07:06:05;;;;;;;3.60;2.23;;;4.10;99.90;;;;;;5072446;28;20213;-60
2021/01/26 07:08:46;;;;;;;13.70;2.70;;;4.10;99.90;;;;;;5062831;28;20237;-60
2021/01/26 07:11:32;;;;;;;5.83;2.40;;;4.20;99.90;;;;;;5072352;28;20201;-60
2021/01/26 07:14:08;;;;;;;5.40;2.30;;;4.10;99.90;;;;;;5071746;28;20657;-60
2021/01/26 07:16:52;;;;;;;4.93;2.50;;;4.00;99.90;;;;;;5071987;28;20278;-60
2021/01/26 07:19:51;;;;;;;7.67;2.70;;;4.10;99.90;;;;;;5071997;28;20253;-60
2021/01/26 07:22:45;;;;;;;8.33;2.50;;;4.10;99.90;;;;;;5071873;28;20725;-60
2021/01/26 07:25:24;;;;;;;5.77;2.60;;;4.20;99.90;;;;;;5072013;28;20209;-61
2021/01/26 07:28:23;;;;;;;7.00;2.27;;;4.30;99.90;;;;;;5072633;28;20251;-57
2021/01/26 07:30:54;;;;;;;3.47;2.23;;;4.20;99.90;;;;;;5071263;28;20205;-58
2021/01/26 07:33:29;;;;;;;5.10;2.40;;;4.20;99.90;;;;;;5071259;28;20205;-57
2021/01/26 07:36:05;;;;;;;5.87;2.20;;;4.30;99.90;;;;;;5071162;28;20387;-58
2021/01/26 07:38:37;;;;;;;3.87;2.20;;;4.20;99.90;;;;;;5070502;28;20704;-58
2021/01/26 07:41:09;;;;;;;5.13;2.20;;;4.30;99.90;;;;;;5070656;28;20672;-58
2021/01/26 07:43:42;;;;;;;9.47;4.10;;;4.20;99.90;;;;;;5071048;28;20695;-58
2021/01/26 07:46:18;;;;;;;3.27;1.90;;;4.30;99.90;;;;;;5070573;28;20595;-59
2021/01/26 07:48:51;;;;;;;4.43;2.33;;;4.30;99.90;;;;;;5070442;28;20290;-58
2021/01/26 07:51:21;;;;;;;3.67;2.17;;;4.50;99.90;;;;;;5070772;28;20204;-58
2021/01/26 07:53:54;;;;;;;4.40;2.50;;;4.50;99.90;;;;;;5070406;28;20209;-58
2021/01/26 07:56:30;;;;;;;4.97;2.40;;;4.50;99.90;;;;;;5070299;28;20209;-58
2021/01/26 07:58:57;;;;;;;4.03;2.07;;;4.50;99.90;;;;;;5070455;28;20697;-58
2021/01/26 08:01:26;;;;;;;5.40;2.40;;;4.50;99.90;;;;;;5070621;28;20209;-63
2021/01/26 08:03:53;;;;;;;5.53;2.50;;;4.60;99.90;;;;;;5070470;28;20208;-61
2021/01/26 08:06:48;;;;;;;5.90;2.50;;;4.70;99.90;;;;;;5070395;28;20211;-60
2021/01/26 08:09:19;;;;;;;2.87;2.20;;;4.60;99.90;;;;;;5070372;28;20233;-60
2021/01/26 08:11:54;;;;;;;5.00;2.60;;;4.60;99.90;;;;;;5070525;28;20299;-60
2021/01/26 08:14:27;;;;;;;6.40;2.47;;;4.60;99.90;;;;;;5070127;28;20223;-60
2021/01/26 08:16:55;;;;;;;6.37;2.80;;;4.70;99.90;;;;;;5070403;28;20239;-61
2021/01/26 08:19:25;;;;;;;8.27;3.40;;;4.80;99.90;;;;;;5070089;28;20728;-60
2021/01/26 08:21:53;;;;;;;8.33;3.10;;;4.80;99.90;;;;;;5070388;28;20209;-60
2021/01/26 08:24:36;;;;;;;6.77;3.53;;;4.70;99.90;;;;;;5070079;28;20208;-60
2021/01/26 08:29:57;;;;;;;5.67;3.43;;;4.70;99.90;;;;;;5129344;27;20521;-60
2021/01/26 08:32:44;;;;;;;7.70;3.57;;;4.70;99.90;;;;;;5129451;28;20682;-61
2021/01/26 08:35:13;;;;;;;5.07;3.00;;;4.70;99.90;;;;;;5129268;28;20674;-60
2021/01/26 08:37:50;;;;;;;7.07;3.23;;;4.70;99.90;;;;;;5129115;28;20227;-60
2021/01/26 08:40:20;;;;;;;6.63;3.70;;;4.80;99.90;;;;;;5129538;27;20213;-60
2021/01/26 08:43:02;;;;;;;7.50;3.67;;;4.70;99.90;;;;;;5129928;27;20221;-60
2021/01/26 08:45:53;;;;;;;6.73;3.23;;;4.60;99.90;;;;;;5129175;27;20231;-60
2021/01/26 08:48:28;;;;;;;7.37;3.60;;;4.80;99.90;;;;;;5128712;27;20717;-61
2021/01/26 08:51:13;;;;;;;5.97;4.30;;;4.80;99.90;;;;;;5129418;27;20213;-60
2021/01/26 08:53:41;;;;;;;7.87;3.17;;;4.70;99.90;;;;;;5129038;27;20209;-62
2021/01/26 08:56:39;;;;;;;7.83;3.80;;;4.60;99.90;;;;;;5129069;27;20203;-60
2021/01/26 08:59:08;;;;;;;7.17;2.67;;;4.80;99.90;;;;;;5128964;27;20269;-59
2021/01/26 09:01:48;;;;;;;7.40;3.27;;;4.70;99.90;;;;;;5128900;27;20205;-60
2021/01/26 09:04:47;;;;;;;7.70;3.43;;;4.70;99.90;;;;;;5130355;27;20207;-60
2021/01/26 09:07:48;;;;;;;5.30;3.03;;;4.70;99.90;;;;;;5128860;27;20206;-60
2021/01/26 09:10:23;;;;;;;5.63;2.80;;;4.80;99.90;;;;;;5128928;27;20225;-60
2021/01/26 09:12:52;;;;;;;7.47;2.80;;;4.80;99.90;;;;;;5129043;27;20678;-60
2021/01/26 09:15:19;;;;;;;5.93;2.83;;;4.90;99.90;;;;;;5128747;27;20207;-60
2021/01/26 09:17:47;;;;;;;4.60;2.73;;;4.90;99.90;;;;;;5128471;27;20313;-60
2021/01/26 09:20:20;;;;;;;4.63;2.67;;;4.90;99.90;;;;;;5128645;27;20618;-60
2021/01/26 09:22:47;;;;;;;5.03;2.80;;;5.00;99.90;;;;;;5128875;27;20203;-60
2021/01/26 09:25:16;;;;;;;6.47;2.57;;;5.00;99.90;;;;;;5128781;27;20199;-60
2021/01/26 09:27:42;;;;;;;5.10;3.37;;;5.00;99.90;;;;;;5128249;27;20219;-60
2021/01/26 09:30:16;;;;;;;5.70;2.70;;;4.90;99.90;;;;;;5128589;27;20251;-60
2021/01/26 09:32:44;;;;;;;6.03;2.97;;;5.10;99.90;;;;;;5128727;27;20233;-61
2021/01/26 09:35:22;;;;;;;3.80;2.73;;;5.20;99.90;;;;;;5128561;27;20581;-61
2021/01/26 09:38:05;;;;;;;5.47;3.13;;;5.30;99.90;;;;;;5128267;27;20223;-61
2021/01/26 09:40:32;;;;;;;5.63;3.13;;;5.30;99.90;;;;;;5118730;27;20215;-62
2021/01/26 09:43:08;;;;;;;4.77;2.73;;;5.30;99.90;;;;;;5114701;28;20203;-61
2021/01/26 09:45:35;;;;;;;5.37;2.93;;;5.40;99.90;;;;;;5114550;28;20218;-62
2021/01/26 09:48:01;;;;;;;4.33;2.90;;;5.60;99.90;;;;;;5114362;28;20223;-63
2021/01/26 09:50:28;;;;;;;9.77;3.87;;;5.70;99.90;;;;;;5114454;28;20210;-62
2021/01/26 09:52:57;;;;;;;7.23;3.17;;;5.80;99.90;;;;;;5114143;28;20207;-60
2021/01/26 09:55:24;;;;;;;5.23;2.70;;;5.80;99.90;;;;;;5115769;28;20210;-61
2021/01/26 09:57:55;;;;;;;4.97;2.47;;;5.80;99.90;;;;;;5114918;28;20714;-60
2021/01/26 10:00:24;;;;;;;8.10;2.53;;;5.80;99.90;;;;;;5114267;28;20204;-58
2021/01/26 10:02:53;;;;;;;5.00;1.97;;;5.70;99.90;;;;;;5114398;28;20217;-61
2021/01/26 10:05:21;;;;;;;4.30;2.03;;;5.90;99.90;;;;;;5113982;28;20210;-61
2021/01/26 10:08:04;;;;;;;3.10;2.20;;;5.70;99.90;;;;;;5113975;28;20219;-62
2021/01/26 10:10:31;;;;;;;6.73;2.20;;;5.70;99.90;;;;;;5114335;28;20667;-62
2021/01/26 10:12:57;;;;;;;3.23;1.77;;;5.70;99.90;;;;;;5114193;28;20710;-62
2021/01/26 10:15:34;;;;;;;4.60;2.13;;;5.80;99.90;;;;;;5113980;28;20679;-62
2021/01/26 10:18:11;;;;;;;5.67;2.03;;;5.90;99.90;;;;;;5114402;28;20744;-62
2021/01/26 10:20:53;;;;;;;9.03;4.23;;;6.00;99.90;;;;;;5114526;28;20667;-62
2021/01/26 10:23:25;;;;;;;4.27;2.33;;;6.00;99.90;;;;;;5114754;28;20210;-62
2021/01/26 10:25:53;;;;;;;5.83;2.40;;;6.20;99.90;;;;;;5113838;28;20211;-62
2021/01/26 10:28:24;;;;;;;5.47;1.77;;;6.40;99.90;;;;;;5113342;28;20238;-62
2021/01/26 10:30:51;;;;;;;7.50;2.30;;;6.60;99.30;;;;;;5113710;28;20610;-62
2021/01/26 10:33:33;;;;;;;4.90;2.10;;;6.70;99.10;;;;;;5113494;27;20199;-62
2021/01/26 10:36:18;;;;;;;3.80;1.80;;;6.60;98.80;;;;;;5111537;28;20212;-62
2021/01/26 10:38:46;;;;;;;3.37;1.97;;;6.70;99.00;;;;;;5113003;28;20215;-63
2021/01/26 10:41:19;;;;;;;4.73;2.07;;;6.80;98.80;;;;;;5113460;28;20215;-62
2021/01/26 10:43:45;;;;;;;3.33;1.90;;;6.70;98.70;;;;;;5113070;28;20208;-62
2021/01/26 10:46:13;;;;;;;3.50;2.00;;;6.70;98.30;;;;;;5113444;28;20203;-62
2021/01/26 10:48:43;;;;;;;4.80;2.00;;;6.60;98.60;;;;;;5113010;28;20252;-62
2021/01/26 10:51:12;;;;;;;4.13;1.60;;;6.40;98.10;;;;;;5112138;28;20207;-61
2021/01/26 10:53:41;;;;;;;4.63;1.90;;;6.40;98.10;;;;;;5112703;28;20587;-61
2021/01/26 10:56:09;;;;;;;4.17;1.73;;;6.30;98.40;;;;;;5113094;28;20199;-61
2021/01/26 10:58:35;;;;;;;4.27;1.70;;;6.30;98.50;;;;;;5112679;28;20273;-62
2021/01/26 11:01:01;;;;;;;5.70;2.10;;;6.20;98.50;;;;;;5112864;28;20211;-61
2021/01/26 11:03:27;;;;;;;3.83;1.97;;;6.10;98.80;;;;;;5112691;28;20629;-62
2021/01/26 11:05:54;;;;;;;4.20;2.63;;;6.20;99.00;;;;;;5112599;28;20695;-62
2021/01/26 11:08:20;;;;;;;3.93;1.93;;;6.20;98.60;;;;;;5112734;28;20257;-62
2021/01/26 11:10:47;;;;;;;4.50;2.03;;;6.20;98.60;;;;;;5112566;28;20571;-62
2021/01/26 11:13:14;;;;;;;5.07;1.90;;;6.30;98.60;;;;;;5112467;28;20200;-62
2021/01/26 11:15:40;;;;;;;4.00;2.00;;;6.40;98.70;;;;;;5112113;28;20207;-62
2021/01/26 11:18:07;;;;;;;3.70;2.20;;;6.60;98.20;;;;;;5112535;28;20219;-62
2021/01/26 11:20:34;;;;;;;3.57;2.00;;;6.50;97.90;;;;;;5112269;28;20623;-62
2021/01/26 11:23:00;;;;;;;3.70;1.90;;;6.50;98.30;;;;;;5112464;28;20207;-63
2021/01/26 11:25:27;;;;;;;3.80;1.90;;;6.50;98.20;;;;;;5112333;28;20253;-62
2021/01/26 11:27:53;;;;;;;5.20;2.57;;;6.50;98.10;;;;;;5112083;28;20239;-62
2021/01/26 11:30:22;;;;;;;3.00;1.60;;;6.40;97.80;;;;;;5112255;28;20246;-62
2021/01/26 11:32:48;;;;;;;3.37;2.00;;;6.20;98.00;;;;;;5112144;28;20199;-62
2021/01/26 11:35:19;;;;;;;2.83;1.93;;;6.10;98.20;;;;;;5111767;28;20622;-62
2021/01/26 11:37:45;;;;;;;7.70;2.73;;;6.10;98.50;;;;;;5111867;28;20265;-61
2021/01/26 11:40:13;;;;;;;6.40;2.50;;;6.00;98.50;;;;;;5112368;28;20204;-61
2021/01/26 11:42:39;;;;;;;5.03;2.40;;;6.10;98.20;;;;;;5112495;28;20229;-62
2021/01/26 11:45:09;;;;;;;5.07;2.20;;;6.10;98.30;;;;;;5112271;28;20257;-62
2021/01/26 11:47:36;;;;;;;5.17;2.07;;;6.10;98.40;;;;;;5112229;27;20227;-63
2021/01/26 11:50:04;;;;;;;6.73;2.83;;;6.10;98.20;;;;;;5112035;28;20219;-62
2021/01/26 11:52:31;;;;;;;4.63;1.90;;;6.20;98.40;;;;;;5112021;28;20211;-62
2021/01/26 11:54:57;;;;;;;3.40;1.87;;;6.00;97.80;;;;;;5111820;28;20233;-62
2021/01/26 11:57:23;;;;;;;4.73;2.23;;;6.00;98.00;;;;;;5111733;28;20200;-62
2021/01/26 11:59:49;;;;;;;4.13;2.47;;;6.00;98.00;;;;;;5111532;28;20199;-61
2021/01/26 12:02:16;;;;;;;4.63;2.17;;;5.80;98.20;;;;;;5111480;28;20231;-62
2021/01/26 12:04:43;;;;;;;3.33;2.47;;;5.70;98.50;;;;;;5111705;28;20200;-62
2021/01/26 12:07:09;;;;;;;4.23;2.53;;;5.60;98.50;;;;;;5111748;28;20208;-61
2021/01/26 12:09:35;;;;;;;6.93;2.20;;;5.60;98.60;;;;;;5111367;28;20632;-60
2021/01/26 12:12:01;;;;;;;4.60;2.50;;;5.70;98.60;;;;;;5111503;28;20208;-61
2021/01/26 12:14:27;;;;;;;5.37;2.50;;;5.80;98.20;;;;;;5111323;28;20204;-61
2021/01/26 12:16:53;;;;;;;6.23;2.80;;;6.00;98.00;;;;;;5111603;28;20210;-63
2021/01/26 12:19:20;;;;;;;5.57;2.63;;;6.10;97.80;;;;;;5111442;28;20243;-63
2021/01/26 12:21:47;;;;;;;5.17;2.33;;;6.20;97.90;;;;;;5111973;28;20215;-61
2021/01/26 12:24:13;;;;;;;7.47;3.33;;;6.10;97.80;;;;;;5112484;28;20203;-62
2021/01/26 12:26:39;;;;;;;5.63;2.60;;;6.30;97.60;;;;;;5112064;28;20211;-62
2021/01/26 12:29:05;;;;;;;4.13;2.77;;;6.40;97.40;;;;;;5111632;28;20231;-62
2021/01/26 12:31:31;;;;;;;5.93;2.40;;;6.40;97.60;;;;;;5112429;28;20212;-62
2021/01/26 12:33:57;;;;;;;5.20;2.77;;;6.30;97.60;;;;;;5112228;28;20663;-62
2021/01/26 12:36:24;;;;;;;5.93;2.60;;;6.40;97.30;;;;;;5112658;28;20207;-61
2021/01/26 12:38:51;;;;;;;10.17;4.90;;;6.50;97.50;;;;;;5112891;28;20219;-61
2021/01/26 12:41:17;;;;;;;4.13;2.63;;;6.60;97.10;;;;;;5111890;28;20203;-61
2021/01/26 12:43:43;;;;;;;4.37;2.73;;;6.80;97.20;;;;;;5094074;28;20216;-57
2021/01/26 12:46:10;;;;;;;6.33;3.00;;;6.60;97.10;;;;;;5091486;28;20208;-58
2021/01/26 12:48:36;;;;;;;7.93;3.00;;;6.60;97.10;;;;;;5090936;28;20232;-59
2021/01/26 12:51:02;;;;;;;7.40;2.80;;;6.50;97.00;;;;;;5091388;28;20211;-59
2021/01/26 12:53:28;;;;;;;6.63;2.87;;;6.60;97.20;;;;;;5090869;28;20208;-59
2021/01/26 12:55:55;;;;;;;4.37;2.80;;;6.60;97.10;;;;;;5090816;28;20707;-59
2021/01/26 12:58:22;;;;;;;5.60;2.77;;;6.60;97.10;;;;;;5090405;28;20220;-60
2021/01/26 13:00:48;;;;;;;5.00;2.87;;;6.60;97.10;;;;;;5091007;28;20204;-59
2021/01/26 13:03:15;;;;;;;4.40;2.80;;;6.50;97.00;;;;;;5090768;28;20211;-60
2021/01/26 13:05:41;;;;;;;7.27;2.60;;;6.40;97.20;;;;;;5090376;28;20208;-60
2021/01/26 13:08:07;;;;;;;6.53;2.87;;;6.40;97.00;;;;;;5090517;28;20667;-59
2021/01/26 13:10:33;;;;;;;6.43;2.80;;;6.40;97.00;;;;;;5090864;28;20205;-60
2021/01/26 13:13:00;;;;;;;5.30;2.90;;;6.50;97.00;;;;;;5090396;28;20302;-60
2021/01/26 13:15:27;;;;;;;6.33;3.10;;;6.60;97.10;;;;;;5092442;28;20208;-60
2021/01/26 13:17:54;;;;;;;5.00;2.90;;;6.50;96.80;;;;;;5094149;28;20707;-60
2021/01/26 13:20:21;;;;;;;4.77;2.83;;;6.50;97.20;;;;;;5094446;28;20208;-61
2021/01/26 13:22:47;;;;;;;4.23;2.50;;;6.60;97.10;;;;;;5094265;28;20200;-60